サルタ空港の過去48時間の天気

サルタ空港 (Salta Aerodrome)

現在時刻: 9/16 00:04 -03 (9/16 03:04 UTC) 以下の時間は現地時間です。

過去48時間のMETAR気象情報
時間 風向 風速(m/s) 視程 気温(℃) 湿度(%) 気圧(hPa) 天気現象
15 23:00 南西 2 10km以上 20 32 1010
15 22:00 南西 4 10km以上 19 30 1009
15 21:00 北西 3 10km以上 23 27 1008
15 20:00 北西 4 10km以上 27 18 1007
15 19:00 北東 3 10km以上 30 17 1005
15 18:00 北東 4 10km以上 34 10 1004
15 17:00 北東 3 10km以上 36 7 1004
15 16:00 3 10km以上 35 7 1004
15 15:00 2 10km以上 34 12 1005
15 14:00 北東 1 10km以上 33 14 1006
15 13:00 北東 1 10km以上 30 21 1008
15 12:00 静穏 0 10km以上 26 34 1009
15 11:00 北東 2 10km以上 24 38 1010
15 10:00 3 10km以上 19 52 1010
15 09:00 静穏 0 10km以上 13 72 1010
15 08:00 静穏 0 10km以上 8 87 1010
15 07:00 西 1 10km以上 8 81 1009
15 06:00 静穏 0 10km以上 9 81 1009
15 05:00 静穏 0 10km以上 9 87 1009
15 04:00 南西 1 10km以上 11 71 1010
15 03:00 南西 2 10km以上 11 76 1011
15 02:00 2 10km以上 13 67 1011
15 01:00 南西 3 10km以上 14 67 1012
15 00:00 南西 3 10km以上 14 67 1013
14 23:00 西 1 10km以上 15 63 1013
14 22:00 北北西 1 10km以上 17 59 1013
14 21:00 3 10km以上 19 49 1013
14 20:00 3 10km以上 20 46 1012
14 19:00 北東 4 10km以上 23 36 1011
14 18:00 北北東 5 10km以上 24 31 1010
14 17:00 北東 7 10km以上 27 24 1009
14 16:00 北東 7 10km以上 27 26 1009
14 15:00 北北東 2 10km以上 26 30 1009
14 14:00 2 10km以上 24 31 1011
14 13:00 静穏 0 10km以上 22 35 1013
14 12:00 2 10km以上 20 40 1014
14 11:00 1 10km以上 19 46 1015
14 10:00 南西 1 10km以上 15 55 1016
14 09:00 北東 2 10km以上 11 71 1016
14 08:00 南東 2 10km以上 8 76 1016
14 07:00 北西 2 10km以上 6 87 1015
14 06:00 南西 1 10km以上 6 87 1016
14 05:00 北西 2 10km以上 7 81 1016
14 04:00 静穏 0 10km以上 7 76 1017
14 03:00 南東 2 10km以上 7 76 1017
14 02:00 静穏 0 10km以上 8 76 1018
14 01:00 静穏 0 10km以上 8 81 1018
SASA 160200Z 23004KT CAVOK 20/03 Q1010
SASA 160100Z 23007KT CAVOK 19/01 Q1009
SASA 160000Z 32006KT CAVOK 23/03 Q1008
SASA 152300Z 32007KT CAVOK 27/01 Q1007
SASA 152200Z 05006KT CAVOK 30/02 Q1005
SASA 152100Z 05007KT CAVOK 34/M02 Q1004
SASA 152000Z 05005KT CAVOK 36/M06 Q1004
SASA 151900Z 09006KT CAVOK 35/M06 Q1004
SASA 151800Z 09004KT CAVOK 34/01 Q1005
SASA 151700Z 05002KT CAVOK 33/02 Q1006
SASA 151600Z 05002KT CAVOK 30/05 Q1008
SASA 151500Z 00000KT CAVOK 26/09 Q1009
SASA 151400Z 05003KT CAVOK 24/09 Q1010
SASA 151300Z 36006KT CAVOK 19/09 Q1010
SASA 151200Z 00000KT CAVOK 13/08 Q1010
SASA 151100Z 00000KT CAVOK 08/06 Q1010
SASA 151000Z 27002KT CAVOK 08/05 Q1009
SASA 150900Z 00000KT CAVOK 09/06 Q1009
SASA 150800Z 00000KT CAVOK 09/07 Q1009
SASA 150700Z 23002KT CAVOK 11/06 Q1010
SASA 150600Z 23004KT CAVOK 11/07 Q1011
SASA 150500Z 18004KT CAVOK 13/07 Q1011
SASA 150400Z 23005KT CAVOK 14/08 Q1012
SASA 150300Z 23005KT CAVOK 14/08 Q1013
SASA 150200Z 27002KT CAVOK 15/08 Q1013
SASA 150100Z 34002KT CAVOK 17/09 Q1013
SASA 150000Z 36006KT CAVOK 19/08 Q1013
SASA 142300Z 36006KT CAVOK 20/08 Q1012
SASA 142200Z 05008KT CAVOK 23/07 Q1011
SASA 142100Z 02009KT CAVOK 24/06 Q1010
SASA 142000Z 05013KT CAVOK 27/05 Q1009
SASA 141900Z 05014KT CAVOK 27/06 Q1009
SASA 141800Z 02004KT CAVOK 26/07 Q1009
SASA 141700Z 36004KT CAVOK 24/06 Q1011
SASA 141600Z 00000KT CAVOK 22/06 Q1013
SASA 141500Z 09003KT CAVOK 20/06 Q1014
SASA 141400Z 09002KT CAVOK 19/07 Q1015
SASA 141300Z 23002KT CAVOK 15/06 Q1016
SASA 141200Z 05004KT CAVOK 11/06 Q1016
SASA 141100Z 14004KT CAVOK 08/04 Q1016
SASA 141000Z 32003KT CAVOK 06/04 Q1015
SASA 140900Z 23002KT CAVOK 06/04 Q1016
SASA 140800Z 32003KT CAVOK 07/04 Q1016
SASA 140700Z 00000KT CAVOK 07/03 Q1017
SASA 140600Z 14003KT CAVOK 07/03 Q1017
SASA 140500Z 00000KT CAVOK 08/04 Q1018
SASA 140400Z 00000KT CAVOK 08/05 Q1018